Time;durP1;ratioP1;P1;durP2;ratioP2;P2;SDS_P1;SDS_P2;PMS_P1;PMS_P2;Temp;Humidity;BMP_temperature;BMP_pressure;BME280_temperature;BME280_humidity;BME280_pressure;Samples;Min_cycle;Max_cycle;Signal;HPM_P1;HPM_P2
2021/09/17 00:02:04;;;;;;;16.33;9.32;;;;;;;22.04;66.63;99649.09;5095658;28;20474;-72
2021/09/17 00:04:32;;;;;;;19.60;9.48;;;;;;;22.03;66.38;99655.53;5114158;28;20048;-72
2021/09/17 00:07:01;;;;;;;19.67;9.30;;;;;;;22.02;66.67;99648.44;5114006;28;20044;-72
2021/09/17 00:09:29;;;;;;;16.88;9.63;;;;;;;22.06;66.42;99644.31;5113969;28;20077;-72
2021/09/17 00:11:57;;;;;;;19.17;9.27;;;;;;;22.02;66.83;99643.00;5113914;28;20456;-72
2021/09/17 00:14:26;;;;;;;14.95;9.57;;;;;;;22.05;66.59;99642.63;5113891;28;20053;-72
2021/09/17 00:16:54;;;;;;;19.55;9.55;;;;;;;22.06;66.41;99638.03;5114060;28;20405;-72
2021/09/17 00:19:24;;;;;;;17.55;8.63;;;;;;;22.00;66.49;99640.47;5113925;28;20108;-71
2021/09/17 00:21:53;;;;;;;16.48;8.82;;;;;;;21.98;67.07;99641.66;5113444;28;20486;-72
2021/09/17 00:24:21;;;;;;;17.58;8.75;;;;;;;21.91;67.03;99635.28;5113641;28;20110;-72
2021/09/17 00:26:50;;;;;;;18.23;8.77;;;;;;;21.89;67.29;99637.28;5113856;28;20040;-72
2021/09/17 00:29:18;;;;;;;17.63;8.82;;;;;;;21.90;67.02;99628.13;5113646;28;20475;-72
2021/09/17 00:31:48;;;;;;;17.30;8.85;;;;;;;21.90;66.97;99628.13;5095638;28;20052;-72
2021/09/17 00:34:16;;;;;;;16.08;8.73;;;;;;;21.84;67.10;99629.69;5113274;28;20051;-72
2021/09/17 00:36:45;;;;;;;21.00;8.90;;;;;;;21.86;67.44;99624.09;5113516;28;20535;-70
2021/09/17 00:39:14;;;;;;;19.10;8.60;;;;;;;21.82;67.89;99620.06;5113500;28;20104;-70
2021/09/17 00:41:42;;;;;;;16.17;8.73;;;;;;;21.82;67.37;99618.19;5113533;28;20044;-71
2021/09/17 00:44:11;;;;;;;19.33;9.20;;;;;;;21.80;67.88;99616.66;5113159;28;20046;-71
2021/09/17 00:46:39;;;;;;;16.40;8.93;;;;;;;21.79;67.70;99609.53;5113370;28;20093;-71
2021/09/17 00:49:09;;;;;;;15.73;8.48;;;;;;;21.77;68.19;99611.59;5113047;28;20066;-71
2021/09/17 00:51:37;;;;;;;18.77;8.95;;;;;;;21.72;68.22;99609.44;5113287;28;20405;-70
2021/09/17 00:54:05;;;;;;;16.35;8.88;;;;;;;21.71;68.55;99611.31;5112935;28;20058;-70
2021/09/17 00:56:34;;;;;;;15.25;8.52;;;;;;;21.70;68.71;99611.47;5113246;28;20623;-71
2021/09/17 00:59:02;;;;;;;20.48;9.30;;;;;;;21.67;68.93;99611.81;5113004;28;20067;-74
2021/09/17 01:01:30;;;;;;;16.95;9.65;;;;;;;21.67;68.68;99612.66;5113206;28;20088;-73
2021/09/17 01:03:59;;;;;;;17.98;9.77;;;;;;;21.66;69.07;99602.84;5113194;28;20082;-77
2021/09/17 01:06:29;;;;;;;15.48;8.80;;;;;;;21.63;69.13;99603.22;5113320;28;20121;-74
2021/09/17 01:08:58;;;;;;;20.38;9.32;;;;;;;21.62;69.05;99601.53;5095404;28;20452;-74
2021/09/17 01:11:26;;;;;;;19.30;8.60;;;;;;;21.60;69.34;99603.53;5113118;28;20097;-74
2021/09/17 01:13:55;;;;;;;16.50;8.73;;;;;;;21.58;68.83;99592.03;5113128;28;20135;-74
2021/09/17 01:16:23;;;;;;;14.55;8.35;;;;;;;21.67;68.09;99599.09;5112967;28;20054;-74
2021/09/17 01:18:52;;;;;;;17.25;7.88;;;;;;;21.73;67.82;99594.00;5095500;28;20047;-73
2021/09/17 01:21:21;;;;;;;18.85;8.27;;;;;;;21.65;67.50;99593.00;5112749;28;20104;-73
2021/09/17 01:23:50;;;;;;;16.95;8.77;;;;;;;21.65;67.79;99582.16;5112917;28;20043;-73
2021/09/17 01:26:19;;;;;;;19.75;8.57;;;;;;;21.64;67.92;99574.19;5112754;28;20151;-73
2021/09/17 01:28:48;;;;;;;16.38;8.13;;;;;;;21.60;67.98;99572.84;5113074;28;20058;-73
2021/09/17 01:31:16;;;;;;;16.40;8.27;;;;;;;21.57;67.93;99568.63;5112941;28;20040;-72
2021/09/17 01:33:46;;;;;;;16.80;8.52;;;;;;;21.59;67.86;99563.03;5113332;28;20044;-71
2021/09/17 01:36:14;;;;;;;16.45;8.43;;;;;;;21.61;67.99;99563.69;5112691;28;20043;-71
2021/09/17 01:38:44;;;;;;;18.00;8.00;;;;;;;21.52;68.19;99560.22;5112941;28;20513;-71
2021/09/17 01:41:17;;;;;;;18.52;8.60;;;;;;;21.44;68.21;99557.53;5112805;28;20044;-71
2021/09/17 01:43:45;;;;;;;16.13;8.43;;;;;;;21.48;68.40;99558.00;5113112;28;20390;-71
2021/09/17 01:46:14;;;;;;;14.98;7.90;;;;;;;21.39;68.70;99554.50;5112957;28;20089;-72
2021/09/17 01:48:43;;;;;;;15.73;8.05;;;;;;;21.41;68.60;99547.03;5112964;28;20108;-73
2021/09/17 01:51:11;;;;;;;14.43;7.85;;;;;;;21.46;68.44;99558.19;5112473;28;20436;-74
2021/09/17 01:53:40;;;;;;;20.13;8.40;;;;;;;21.43;68.72;99545.00;5112970;28;20044;-73
2021/09/17 01:56:09;;;;;;;17.50;7.40;;;;;;;21.47;68.35;99537.34;5112670;28;20054;-73
2021/09/17 01:58:37;;;;;;;20.02;8.20;;;;;;;21.39;68.90;99535.50;5112869;28;20069;-70
2021/09/17 02:01:05;;;;;;;18.05;8.68;;;;;;;21.35;68.98;99526.06;5112513;28;20068;-71
2021/09/17 02:03:34;;;;;;;14.57;7.85;;;;;;;21.33;69.27;99534.38;5113011;28;20046;-71
2021/09/17 02:06:02;;;;;;;17.30;7.55;;;;;;;21.35;69.04;99520.63;5115091;28;20482;-76
2021/09/17 02:08:30;;;;;;;13.52;8.18;;;;;;;21.26;69.48;99519.84;5116538;28;20096;-71
2021/09/17 02:10:58;;;;;;;14.50;8.07;;;;;;;21.22;69.61;99509.47;5116593;28;20039;-71
2021/09/17 02:13:28;;;;;;;21.90;8.38;;;;;;;21.19;69.54;99505.25;5116354;28;20077;-71
2021/09/17 02:15:56;;;;;;;15.68;8.13;;;;;;;21.15;69.75;99509.38;5116412;28;20043;-73
2021/09/17 02:18:24;;;;;;;14.63;8.02;;;;;;;21.13;70.22;99505.97;5097996;28;20062;-74
2021/09/17 02:20:52;;;;;;;14.88;7.53;;;;;;;21.11;70.09;99508.00;5116484;28;20036;-74
2021/09/17 02:23:20;;;;;;;18.75;8.80;;;;;;;21.07;70.43;99502.09;5115843;28;20051;-74
2021/09/17 02:25:48;;;;;;;21.85;8.40;;;;;;;21.03;70.50;99495.34;5116181;28;20070;-74
2021/09/17 02:28:16;;;;;;;19.58;8.50;;;;;;;21.02;70.65;99492.81;5115626;28;20047;-74
2021/09/17 02:30:48;;;;;;;16.45;8.05;;;;;;;20.98;70.71;99486.91;5116042;28;20044;-76
2021/09/17 02:33:17;;;;;;;20.83;8.52;;;;;;;20.92;70.80;99476.75;5115853;28;20044;-76
2021/09/17 02:35:45;;;;;;;19.38;8.20;;;;;;;20.87;71.13;99473.75;5116282;28;20042;-75
2021/09/17 02:38:15;;;;;;;16.73;8.30;;;;;;;20.81;71.33;99472.59;5115829;28;20097;-75
2021/09/17 02:40:43;;;;;;;19.25;8.65;;;;;;;20.75;71.58;99477.84;5115888;28;20497;-75
2021/09/17 02:43:11;;;;;;;15.25;8.13;;;;;;;20.71;71.77;99474.66;5115371;28;20035;-77
2021/09/17 02:45:40;;;;;;;20.60;8.55;;;;;;;20.66;72.17;99473.53;5115825;28;20048;-77
2021/09/17 02:48:09;;;;;;;16.75;8.50;;;;;;;20.63;72.37;99481.97;5115624;28;20035;-79
2021/09/17 02:50:38;;;;;;;13.60;8.35;;;;;;;20.63;72.39;99471.16;5115497;28;20444;-75
2021/09/17 02:53:06;;;;;;;18.48;8.15;;;;;;;20.55;72.75;99462.03;5115448;28;20108;-75
2021/09/17 02:55:35;;;;;;;19.77;8.65;;;;;;;20.56;72.89;99466.44;5115429;28;20097;-76
2021/09/17 02:58:05;;;;;;;16.98;8.68;;;;;;;20.56;72.76;99460.19;5115308;28;20054;-76
2021/09/17 03:00:34;;;;;;;22.50;8.63;;;;;;;20.57;72.72;99462.72;5115418;28;20043;-76
2021/09/17 03:03:02;;;;;;;17.75;8.10;;;;;;;20.56;73.11;99471.88;5115389;28;20039;-76
2021/09/17 03:05:32;;;;;;;19.23;8.63;;;;;;;20.55;73.06;99480.13;5115229;28;20088;-76
2021/09/17 03:08:00;;;;;;;18.88;8.50;;;;;;;20.56;73.35;99471.88;5115458;28;20148;-76
2021/09/17 03:10:28;;;;;;;21.27;9.07;;;;;;;20.56;73.10;99469.16;5114878;28;20051;-71
2021/09/17 03:12:56;;;;;;;24.08;8.85;;;;;;;20.55;73.33;99480.97;5115473;28;20089;-70
2021/09/17 03:15:24;;;;;;;15.93;8.77;;;;;;;20.55;73.20;99486.41;5114791;28;20501;-72
2021/09/17 03:17:52;;;;;;;18.75;9.13;;;;;;;20.53;73.58;99482.19;5113958;28;20084;-73
2021/09/17 03:20:21;;;;;;;19.38;9.13;;;;;;;20.51;74.03;99478.81;5114837;28;20439;-74
2021/09/17 03:22:50;;;;;;;19.63;8.60;;;;;;;20.53;73.92;99468.63;5114948;28;20039;-74
2021/09/17 03:25:18;;;;;;;17.80;8.85;;;;;;;20.56;73.66;99461.03;5114600;28;20098;-74
2021/09/17 03:27:47;;;;;;;20.13;7.85;;;;;;;20.66;73.25;99452.69;5114930;28;20089;-74
2021/09/17 03:30:15;;;;;;;17.35;8.32;;;;;;;20.78;72.25;99445.00;5114873;28;20070;-74
2021/09/17 03:32:43;;;;;;;15.15;7.65;;;;;;;20.71;72.50;99444.84;5114780;28;20472;-74
2021/09/17 03:35:11;;;;;;;16.42;8.10;;;;;;;20.65;72.87;99448.25;5114407;28;20047;-74
2021/09/17 03:37:40;;;;;;;13.15;7.35;;;;;;;20.62;74.05;99434.22;5114649;28;20044;-74
2021/09/17 03:40:10;;;;;;;24.17;9.23;;;;;;;20.64;74.48;99440.31;5114855;28;20048;-78
2021/09/17 03:42:39;;;;;;;20.33;8.48;;;;;;;20.60;75.29;99449.81;5114890;28;20096;-73
2021/09/17 03:45:08;;;;;;;17.25;8.40;;;;;;;20.66;75.22;99443.72;5114627;28;20043;-74
2021/09/17 03:47:37;;;;;;;16.13;9.18;;;;;;;20.56;77.56;99452.06;5114463;28;20069;-73
2021/09/17 03:50:05;;;;;;;15.68;8.32;;;;;;;20.52;78.25;99432.59;5114389;28;20043;-74
2021/09/17 03:52:34;;;;;;;22.65;9.93;;;;;;;20.40;81.87;99428.53;5114791;28;20089;-74
2021/09/17 03:55:03;;;;;;;20.55;8.93;;;;;;;20.30;82.89;99433.31;5114503;28;20402;-72
2021/09/17 03:57:32;;;;;;;18.67;9.13;;;;;;;20.27;85.52;99433.69;5114218;28;20071;-74
2021/09/17 04:00:01;;;;;;;19.35;9.40;;;;;;;20.37;86.92;99431.59;5114239;28;20048;-74
2021/09/17 04:02:29;;;;;;;25.52;10.70;;;;;;;20.22;90.41;99427.94;5113835;28;20235;-74
2021/09/17 04:04:57;;;;;;;21.20;10.20;;;;;;;20.09;91.06;99424.94;5114112;28;20048;-79
2021/09/17 04:07:25;;;;;;;15.43;9.57;;;;;;;20.01;94.03;99429.34;5113888;28;20079;-79
2021/09/17 04:09:53;;;;;;;21.05;10.25;;;;;;;20.04;94.54;99438.13;5114262;28;20047;-79
2021/09/17 04:12:21;;;;;;;19.88;10.43;;;;;;;19.97;95.90;99427.97;5113784;28;20409;-80
2021/09/17 04:14:51;;;;;;;20.17;10.00;;;;;;;19.87;97.83;99429.19;5113994;28;20477;-76
2021/09/17 04:17:19;;;;;;;21.50;11.15;;;;;;;19.85;98.53;99440.19;5113593;28;20061;-78
2021/09/17 04:19:47;;;;;;;19.40;11.40;;;;;;;19.86;100.00;99436.47;5113773;28;20418;-77
2021/09/17 04:22:15;;;;;;;23.50;11.75;;;;;;;19.86;100.00;99427.50;5113477;28;20078;-78
2021/09/17 04:24:43;;;;;;;21.25;11.85;;;;;;;19.78;100.00;99422.94;5113718;28;20542;-74
2021/09/17 04:27:12;;;;;;;25.52;12.93;;;;;;;19.79;100.00;99421.94;5113333;28;20047;-74
2021/09/17 04:29:40;;;;;;;23.88;13.77;;;;;;;19.94;100.00;99436.44;5113464;28;20047;-75
2021/09/17 04:32:10;;;;;;;23.90;14.30;;;;;;;20.19;100.00;99439.97;5113829;28;20116;-74
2021/09/17 04:34:38;;;;;;;21.80;14.15;;;;;;;20.20;100.00;99441.66;5113969;28;20070;-74
2021/09/17 04:37:06;;;;;;;21.02;13.90;;;;;;;20.14;100.00;99438.78;5113385;28;20051;-79
2021/09/17 04:39:34;;;;;;;20.70;13.23;;;;;;;20.01;100.00;99439.31;5113245;28;20039;-78
2021/09/17 04:42:03;;;;;;;21.90;14.05;;;;;;;20.05;100.00;99445.22;5113261;28;20467;-73
2021/09/17 04:44:32;;;;;;;21.25;12.85;;;;;;;19.97;100.00;99449.63;5095010;28;20050;-72
2021/09/17 04:47:00;;;;;;;19.20;11.90;;;;;;;19.97;100.00;99455.03;5113785;28;20043;-72
2021/09/17 04:49:29;;;;;;;19.75;12.02;;;;;;;20.00;100.00;99454.72;5113207;28;20555;-72
2021/09/17 04:51:57;;;;;;;21.42;11.88;;;;;;;19.90;100.00;99459.47;5113440;28;20043;-72
2021/09/17 04:54:26;;;;;;;20.45;12.02;;;;;;;19.82;100.00;99459.47;5112959;28;20093;-72
2021/09/17 04:56:54;;;;;;;22.00;13.13;;;;;;;19.77;100.00;99451.00;5113162;28;20105;-72
2021/09/17 04:59:22;;;;;;;20.90;13.05;;;;;;;19.81;100.00;99468.63;5112903;28;20043;-72
2021/09/17 05:01:50;;;;;;;22.88;12.90;;;;;;;19.97;100.00;99449.63;5113331;28;20043;-72
2021/09/17 05:04:18;;;;;;;21.75;13.68;;;;;;;19.81;100.00;99460.50;5112835;28;20478;-73
2021/09/17 05:06:48;;;;;;;21.92;14.35;;;;;;;19.77;100.00;99459.13;5112954;28;20116;-72
2021/09/17 05:09:16;;;;;;;21.25;14.38;;;;;;;19.66;100.00;99451.34;5112723;28;20152;-73
2021/09/17 05:11:44;;;;;;;18.55;12.48;;;;;;;19.72;100.00;99459.66;5112979;28;20043;-72
2021/09/17 05:14:12;;;;;;;21.52;13.48;;;;;;;19.87;100.00;99458.94;5113084;28;20043;-72
2021/09/17 05:16:44;;;;;;;20.77;12.77;;;;;;;19.90;100.00;99464.88;5113179;28;20039;-72
2021/09/17 05:19:12;;;;;;;21.75;12.45;;;;;;;19.83;100.00;99479.25;5113191;28;20043;-72
2021/09/17 05:21:41;;;;;;;16.17;11.50;;;;;;;19.79;100.00;99484.19;5113116;28;20047;-72
2021/09/17 05:24:10;;;;;;;15.98;10.65;;;;;;;19.68;100.00;99479.94;5112694;28;20479;-73
2021/09/17 05:26:38;;;;;;;20.40;11.63;;;;;;;19.78;100.00;99479.75;5112630;28;20040;-71
2021/09/17 05:29:07;;;;;;;23.73;11.65;;;;;;;19.78;100.00;99482.47;5112916;28;20436;-75
2021/09/17 05:31:35;;;;;;;20.67;11.65;;;;;;;19.79;100.00;99478.78;5112689;28;20042;-76
2021/09/17 05:34:03;;;;;;;17.73;11.23;;;;;;;19.88;100.00;99480.47;5112605;28;20058;-75
2021/09/17 05:36:32;;;;;;;15.00;9.27;;;;;;;19.89;100.00;99484.84;5115740;28;20051;-74
2021/09/17 05:39:00;;;;;;;18.55;10.63;;;;;;;19.99;100.00;99482.81;5112906;28;20044;-73
2021/09/17 05:41:30;;;;;;;14.50;9.48;;;;;;;20.19;100.00;99479.72;5115907;28;20040;-78
2021/09/17 05:43:58;;;;;;;13.75;9.30;;;;;;;20.27;100.00;99477.00;5116815;28;20539;-76
2021/09/17 05:46:26;;;;;;;16.90;9.88;;;;;;;20.28;100.00;99473.28;5116038;28;20070;-74
2021/09/17 05:48:54;;;;;;;15.07;9.98;;;;;;;20.28;100.00;99473.28;5116027;28;20036;-77
2021/09/17 05:51:22;;;;;;;15.15;7.88;;;;;;;20.31;100.00;99478.34;5115573;28;20097;-72
2021/09/17 05:54:05;;;;;;;10.18;5.18;;;;;;;20.27;100.00;99474.28;5116326;28;20075;-72
2021/09/17 05:56:37;;;;;;;8.70;5.82;;;;;;;20.29;100.00;99480.38;5115739;28;20040;-72
2021/09/17 05:59:06;;;;;;;6.05;4.03;;;;;;;20.07;100.00;99476.50;5116451;28;20074;-74
2021/09/17 06:01:34;;;;;;;6.72;3.92;;;;;;;19.99;100.00;99480.09;5115989;28;20046;-73
2021/09/17 06:04:02;;;;;;;5.05;3.05;;;;;;;20.07;100.00;99481.91;5116483;28;20110;-72
2021/09/17 06:06:30;;;;;;;4.53;2.70;;;;;;;20.04;100.00;99489.56;5116130;28;20047;-75
2021/09/17 06:08:58;;;;;;;4.85;2.53;;;;;;;19.92;100.00;99492.63;5116449;28;20051;-75
2021/09/17 06:11:27;;;;;;;5.75;2.70;;;;;;;19.75;100.00;99490.94;5115999;28;20065;-74
2021/09/17 06:13:56;;;;;;;4.20;1.95;;;;;;;19.68;100.00;99490.75;5110256;28;20555;-75
2021/09/17 06:16:24;;;;;;;4.20;2.00;;;;;;;19.73;100.00;99496.50;5116317;28;20059;-72
2021/09/17 06:19:01;;;;;;;4.70;2.38;;;;;;;19.94;100.00;99498.69;5116362;28;20043;-73
2021/09/17 06:21:30;;;;;;;4.35;1.88;;;;;;;19.83;100.00;99500.91;5115917;28;20044;-73
2021/09/17 06:23:58;;;;;;;5.15;2.40;;;;;;;19.90;100.00;99496.53;5115792;28;20383;-73
2021/09/17 06:26:30;;;;;;;3.30;1.90;;;;;;;19.87;100.00;99497.69;5115911;28;20044;-73
2021/09/17 06:29:02;;;;;;;6.50;2.30;;;;;;;19.97;100.00;99495.63;5115658;28;20546;-74
2021/09/17 06:31:30;;;;;;;4.70;2.33;;;;;;;20.16;100.00;99499.84;5115956;27;20043;-73
2021/09/17 06:33:58;;;;;;;8.63;2.30;;;;;;;20.37;100.00;99504.72;5115725;28;20050;-73
2021/09/17 06:36:26;;;;;;;4.20;2.30;;;;;;;20.43;100.00;99506.75;5114154;28;20043;-74
2021/09/17 06:38:55;;;;;;;3.83;2.13;;;;;;;20.70;100.00;99507.38;5115493;28;20039;-77
2021/09/17 06:41:23;;;;;;;4.45;2.20;;;;;;;20.94;100.00;99506.41;5115855;28;20047;-74
2021/09/17 06:43:51;;;;;;;5.05;2.60;;;;;;;21.36;98.08;99501.47;5115148;28;20545;-74
2021/09/17 06:46:21;;;;;;;4.53;2.47;;;;;;;21.73;94.13;99509.84;5115838;28;20122;-74
2021/09/17 06:48:51;;;;;;;5.70;2.60;;;;;;;21.87;97.04;99515.31;5115798;28;20044;-77
2021/09/17 06:51:23;;;;;;;3.65;2.30;;;;;;;21.54;96.07;99503.88;5115482;28;20083;-73
2021/09/17 06:53:51;;;;;;;4.15;2.55;;;;;;;21.23;97.08;99503.91;5097255;28;20051;-73
2021/09/17 06:56:20;;;;;;;4.10;2.80;;;;;;;21.21;98.89;99503.22;5115508;28;20401;-74
2021/09/17 06:58:48;;;;;;;6.07;3.13;;;;;;;21.28;97.55;99511.50;5115592;28;20035;-75
2021/09/17 07:01:16;;;;;;;5.20;3.20;;;;;;;21.32;99.92;99516.38;5115270;28;20048;-76
2021/09/17 07:03:46;;;;;;;5.63;3.10;;;;;;;21.27;97.35;99518.81;5114900;28;20051;-78
2021/09/17 07:06:15;;;;;;;6.85;3.33;;;;;;;21.38;97.49;99520.25;5114995;28;20045;-79
2021/09/17 07:08:43;;;;;;;6.32;3.30;;;;;;;21.62;96.93;99511.97;5115161;28;20051;-77
2021/09/17 07:11:11;;;;;;;5.38;3.20;;;;;;;22.03;95.20;99522.47;5115275;28;20048;-77
2021/09/17 07:13:40;;;;;;;4.47;2.83;;;;;;;22.00;93.68;99520.13;5114387;28;20122;-75
2021/09/17 07:16:08;;;;;;;6.57;3.00;;;;;;;21.74;94.23;99519.69;5114777;28;20047;-73
2021/09/17 07:18:38;;;;;;;5.55;2.97;;;;;;;21.79;92.85;99520.81;5114348;28;20043;-77
2021/09/17 07:21:08;;;;;;;5.82;3.15;;;;;;;21.57;95.92;99519.78;5114747;28;20047;-73
2021/09/17 07:23:36;;;;;;;5.13;3.17;;;;;;;21.55;94.94;99521.84;5113983;28;20044;-72
2021/09/17 07:26:04;;;;;;;4.80;2.72;;;;;;;21.30;92.67;99536.59;5113812;28;20040;-71
2021/09/17 07:28:38;;;;;;;7.97;2.97;;;;;;;21.13;96.40;99533.94;5113811;28;20055;-83
2021/09/17 07:31:07;;;;;;;6.85;3.33;;;;;;;21.13;96.01;99542.09;5114333;28;20043;-81
2021/09/17 07:33:36;;;;;;;7.22;3.22;;;;;;;21.19;95.01;99539.66;5114776;28;20043;-73
2021/09/17 07:36:05;;;;;;;6.30;3.30;;;;;;;21.13;97.76;99544.78;5114868;28;20077;-75
2021/09/17 07:38:34;;;;;;;5.47;3.10;;;;;;;20.92;96.05;99543.69;5114788;28;20044;-74
2021/09/17 07:41:02;;;;;;;4.45;2.80;;;;;;;20.93;97.42;99543.50;5114476;28;20362;-75
2021/09/17 07:43:30;;;;;;;6.97;3.47;;;;;;;21.06;96.85;99548.38;5113751;28;20048;-72
2021/09/17 07:45:58;;;;;;;5.95;2.83;;;;;;;20.93;98.81;99548.94;5114639;28;20047;-73
2021/09/17 07:48:27;;;;;;;5.97;2.22;;;;;;;20.68;99.05;99552.75;5114321;28;20066;-74
2021/09/17 07:50:55;;;;;;;3.83;2.20;;;;;;;20.36;98.95;99559.03;5114506;28;20074;-74
2021/09/17 07:53:23;;;;;;;2.92;1.83;;;;;;;20.22;100.00;99556.03;5113822;28;20044;-76
2021/09/17 07:55:53;;;;;;;2.92;1.80;;;;;;;20.33;100.00;99565.66;5096166;28;20096;-75
2021/09/17 07:58:21;;;;;;;3.15;1.60;;;;;;;20.35;98.65;99565.47;5114181;28;20802;-76
2021/09/17 08:00:49;;;;;;;4.88;1.70;;;;;;;20.42;98.15;99561.06;5114433;28;20164;-79
2021/09/17 08:03:18;;;;;;;2.20;1.60;;;;;;;20.47;97.26;99570.44;5113034;28;20542;-81
2021/09/17 08:05:47;;;;;;;2.40;1.50;;;;;;;20.37;98.09;99558.91;5112933;28;20489;-77
2021/09/17 08:08:15;;;;;;;3.63;1.20;;;;;;;20.40;97.41;99569.38;5114012;28;20069;-79
2021/09/17 08:10:43;;;;;;;2.35;1.20;;;;;;;20.28;97.95;99574.31;5113887;28;20142;-75
2021/09/17 08:13:13;;;;;;;1.95;1.17;;;;;;;20.09;100.00;99573.81;5113363;28;20054;-81
2021/09/17 08:15:41;;;;;;;3.45;1.42;;;;;;;19.83;100.00;99566.69;5114013;28;20101;-78
2021/09/17 08:18:11;;;;;;;1.88;1.30;;;;;;;19.87;100.00;99581.56;5113850;28;20043;-77
2021/09/17 08:20:45;;;;;;;3.17;1.20;;;;;;;19.88;100.00;99580.59;5113670;28;20051;-76
2021/09/17 08:23:13;;;;;;;2.03;1.35;;;;;;;19.83;100.00;99588.34;5113598;28;20046;-78
2021/09/17 08:25:41;;;;;;;2.78;1.50;;;;;;;19.84;100.00;99579.22;5113593;28;20047;-82
2021/09/17 08:28:09;;;;;;;2.78;1.30;;;;;;;19.75;100.00;99574.81;5113972;28;20043;-76
2021/09/17 08:30:38;;;;;;;2.08;1.40;;;;;;;19.74;100.00;99567.69;5113602;28;20409;-84
2021/09/17 08:33:06;;;;;;;2.20;1.42;;;;;;;19.81;100.00;99573.31;5112862;28;20047;-77
2021/09/17 08:35:36;;;;;;;2.30;1.48;;;;;;;20.45;100.00;99575.16;5113490;28;20067;-74
2021/09/17 08:38:04;;;;;;;2.05;1.23;;;;;;;20.39;98.54;99577.69;5113164;28;20050;-74
2021/09/17 08:40:32;;;;;;;1.63;1.15;;;;;;;20.29;97.05;99569.75;5113220;28;20043;-75
2021/09/17 08:43:02;;;;;;;3.10;1.30;;;;;;;20.43;98.13;99579.91;5112758;28;20046;-75
2021/09/17 08:45:32;;;;;;;1.75;1.23;;;;;;;20.21;95.90;99580.56;5112876;28;20049;-75
2021/09/17 08:48:02;;;;;;;2.58;1.00;;;;;;;20.06;97.33;99572.28;5112863;28;20074;-75
2021/09/17 08:50:31;;;;;;;1.58;0.95;;;;;;;19.83;97.79;99582.94;5112556;28;20075;-80
2021/09/17 08:52:59;;;;;;;0.80;0.77;;;;;;;19.71;97.32;99593.25;5111992;28;20508;-73
2021/09/17 08:55:28;;;;;;;1.42;1.15;;;;;;;19.57;99.34;99584.91;5111951;28;20044;-79
2021/09/17 08:57:56;;;;;;;1.73;1.20;;;;;;;19.54;98.04;99590.63;5111794;28;20047;-75
2021/09/17 09:00:46;;;;;;;3.45;1.40;;;;;;;19.58;96.50;99587.44;5112255;28;20048;-75
2021/09/17 09:03:30;;;;;;;3.65;1.40;;;;;;;19.57;96.92;99596.59;5112568;28;20071;-74
2021/09/17 09:06:10;;;;;;;1.60;1.35;;;;;;;19.52;96.26;99592.66;5112661;28;20043;-73
2021/09/17 09:08:43;;;;;;;2.60;1.50;;;;;;;19.68;95.92;99600.81;5113042;28;20040;-74
2021/09/17 09:11:16;;;;;;;3.40;1.85;;;;;;;19.98;93.21;99597.50;5112700;28;20048;-74
2021/09/17 09:14:04;;;;;;;3.92;1.50;;;;;;;20.02;93.07;99593.44;5113444;28;20043;-74
2021/09/17 09:16:33;;;;;;;1.90;1.15;;;;;;;19.87;92.23;99596.97;5117104;28;20513;-73
2021/09/17 09:19:27;;;;;;;3.55;1.45;;;;;;;19.86;89.28;99588.00;5117368;28;20050;-75
2021/09/17 09:22:10;;;;;;;4.25;1.50;;;;;;;19.67;92.39;99585.63;5117347;28;20122;-75
2021/09/17 09:24:41;;;;;;;4.20;1.60;;;;;;;19.78;91.96;99582.56;5117228;28;20078;-75
2021/09/17 09:27:12;;;;;;;2.20;1.50;;;;;;;19.74;91.19;99581.22;5117338;28;20039;-75
2021/09/17 09:29:43;;;;;;;4.13;2.40;;;;;;;19.88;92.22;99568.88;5117159;28;20486;-75
2021/09/17 09:32:25;;;;;;;2.25;1.42;;;;;;;20.02;88.95;99574.50;5116721;28;20039;-75
2021/09/17 09:34:56;;;;;;;2.07;1.40;;;;;;;19.87;89.19;99583.44;5117143;28;20047;-76
2021/09/17 09:37:26;;;;;;;2.08;1.33;;;;;;;19.49;92.00;99568.63;5117061;28;20498;-75
2021/09/17 09:39:57;;;;;;;3.45;1.75;;;;;;;19.46;92.44;99569.81;5117011;28;20039;-73
2021/09/17 09:42:32;;;;;;;3.42;1.73;;;;;;;19.41;89.89;99577.59;5098462;28;20040;-73
2021/09/17 09:45:18;;;;;;;3.33;1.90;;;;;;;19.36;89.45;99583.50;5117065;28;20451;-74
2021/09/17 09:47:48;;;;;;;2.00;1.60;;;;;;;19.37;88.81;99587.88;5116412;28;20035;-74
2021/09/17 09:50:22;;;;;;;4.43;1.77;;;;;;;19.44;90.45;99585.38;5116575;28;20585;-74
2021/09/17 09:52:50;;;;;;;;;;;;;;;19.66;87.25;99587.47;5116699;28;20507;-73
2021/09/17 09:55:18;;;;;;;3.35;1.45;;;;;;;19.68;87.93;99574.63;5116782;28;19927;-73
2021/09/17 09:57:46;;;;;;;3.22;1.40;;;;;;;19.51;87.90;99572.03;5116846;28;20055;-73
2021/09/17 10:00:16;;;;;;;1.98;1.45;;;;;;;19.66;87.66;99573.94;5116691;28;20043;-72
2021/09/17 10:02:46;;;;;;;2.88;1.50;;;;;;;19.90;87.20;99567.72;5098060;28;20054;-74
2021/09/17 10:05:16;;;;;;;2.20;1.50;;;;;;;19.70;87.89;99572.63;5116561;28;20071;-73
2021/09/17 10:07:46;;;;;;;4.00;1.85;;;;;;;19.48;87.42;99580.47;5116813;28;20036;-74
2021/09/17 10:10:15;;;;;;;1.90;1.40;;;;;;;19.20;89.58;99594.25;5116552;28;20100;-72
2021/09/17 10:12:45;;;;;;;5.53;2.00;;;;;;;19.07;89.99;99581.19;5115228;28;20036;-73
2021/09/17 10:15:15;;;;;;;2.75;1.30;;;;;;;18.92;90.52;99576.59;5115376;28;20051;-76
2021/09/17 10:17:49;;;;;;;2.67;1.70;;;;;;;18.90;91.43;99575.88;5115681;28;20046;-74
2021/09/17 10:20:20;;;;;;;3.53;1.90;;;;;;;19.08;89.32;99587.44;5114410;28;20047;-76
2021/09/17 10:22:51;;;;;;;3.17;1.80;;;;;;;19.08;89.38;99582.03;5115100;28;20067;-76
2021/09/17 10:25:22;;;;;;;2.72;2.05;;;;;;;19.12;89.38;99589.66;5115040;28;20069;-76
2021/09/17 10:28:03;;;;;;;5.10;2.15;;;;;;;19.03;89.73;99565.47;5114921;28;20047;-75
2021/09/17 10:30:33;;;;;;;4.32;2.30;;;;;;;19.26;88.64;99563.84;5115556;28;20154;-75
2021/09/17 10:33:01;;;;;;;3.22;2.47;;;;;;;19.39;86.52;99563.38;5114773;28;20067;-75
2021/09/17 10:35:42;;;;;;;3.42;2.17;;;;;;;19.52;87.37;99557.50;5115182;28;20042;-79
2021/09/17 10:38:18;;;;;;;3.22;1.88;;;;;;;19.35;87.44;99568.28;5114597;28;20048;-76
2021/09/17 10:40:52;;;;;;;2.78;1.67;;;;;;;19.29;87.59;99547.28;5114850;28;20040;-81
2021/09/17 10:43:23;;;;;;;5.20;1.85;;;;;;;19.39;87.50;99547.16;5113682;28;20050;-74
2021/09/17 10:45:53;;;;;;;4.05;2.20;;;;;;;19.41;86.12;99555.97;5113727;28;20050;-76
2021/09/17 10:48:24;;;;;;;2.70;1.98;;;;;;;19.55;86.22;99543.63;5112567;28;20035;-75
2021/09/17 10:51:00;;;;;;;3.22;2.17;;;;;;;19.66;85.63;99556.88;5115375;28;20054;-76
2021/09/17 10:54:04;;;;;;;3.00;2.20;;;;;;;19.68;84.72;99569.22;5114868;28;20115;-72
2021/09/17 10:57:07;;;;;;;3.42;1.90;;;;;;;19.59;84.41;99558.53;5112739;28;20047;-76
2021/09/17 10:59:46;;;;;;;4.37;2.10;;;;;;;19.74;85.16;99562.28;5115071;28;20196;-74
2021/09/17 11:02:15;;;;;;;3.70;2.17;;;;;;;19.57;84.15;99568.69;5115120;28;20159;-74
2021/09/17 11:04:48;;;;;;;2.80;2.10;;;;;;;19.74;83.74;99567.69;5115317;28;20039;-82
2021/09/17 11:07:35;;;;;;;3.55;2.10;;;;;;;19.70;84.07;99574.47;5114928;28;20387;-75
2021/09/17 11:10:24;;;;;;;4.60;2.10;;;;;;;19.87;82.90;99573.44;5115074;28;20046;-74
2021/09/17 11:13:05;;;;;;;3.63;2.20;;;;;;;19.81;83.28;99566.03;5114315;28;20040;-73
2021/09/17 11:15:33;;;;;;;3.92;2.13;;;;;;;19.86;84.16;99566.34;5114845;28;20123;-72
2021/09/17 11:18:08;;;;;;;3.15;1.90;;;;;;;19.77;83.01;99572.78;5114818;28;20040;-74
2021/09/17 11:20:36;;;;;;;4.32;2.30;;;;;;;19.79;83.86;99564.50;5115085;28;20429;-75
2021/09/17 11:23:06;;;;;;;4.20;1.85;;;;;;;19.96;82.77;99566.19;5114640;28;20100;-74
2021/09/17 11:25:36;;;;;;;3.67;2.30;;;;;;;19.92;84.49;99560.28;5096392;28;20063;-76
2021/09/17 11:28:08;;;;;;;3.42;2.10;;;;;;;20.08;83.76;99569.44;5114768;28;20044;-75
2021/09/17 11:30:37;;;;;;;6.60;2.20;;;;;;;20.15;82.33;99581.25;5114741;28;20120;-76
2021/09/17 11:33:20;;;;;;;3.15;2.10;;;;;;;20.12;79.80;99576.19;5114336;28;20116;-75
2021/09/17 11:35:48;;;;;;;2.50;1.80;;;;;;;20.00;80.57;99589.22;5114642;28;20081;-75
2021/09/17 11:38:23;;;;;;;4.28;2.33;;;;;;;19.99;80.55;99577.53;5113559;28;20051;-76
2021/09/17 11:40:53;;;;;;;3.80;2.03;;;;;;;20.11;79.86;99582.63;5114414;28;20063;-71